Time;durP1;ratioP1;P1;durP2;ratioP2;P2;SDS_P1;SDS_P2;PMS_P1;PMS_P2;Temp;Humidity;BMP_temperature;BMP_pressure;BME280_temperature;BME280_humidity;BME280_pressure;Samples;Min_cycle;Max_cycle;Signal;HPM_P1;HPM_P2
2022/04/18 00:00:07;;;;;;;3.00;0.90;;;;;;;3.20;38.60;99816.81;6156319;23;20029;-63
2022/04/18 00:02:34;;;;;;;4.43;1.13;;;;;;;3.20;38.45;99821.50;6156579;23;20035;-64
2022/04/18 00:05:02;;;;;;;2.17;0.95;;;;;;;3.20;38.38;99827.00;6155991;23;20080;-64
2022/04/18 00:07:29;;;;;;;2.35;0.90;;;;;;;3.18;38.45;99824.53;6156006;23;20025;-64
2022/04/18 00:09:56;;;;;;;3.88;1.20;;;;;;;3.16;38.48;99823.16;6155850;23;20100;-63
2022/04/18 00:12:23;;;;;;;4.60;1.00;;;;;;;3.12;38.46;99819.31;6156110;23;20029;-63
2022/04/18 00:14:50;;;;;;;3.50;1.40;;;;;;;3.12;38.55;99814.66;6156538;23;20105;-64
2022/04/18 00:17:17;;;;;;;2.28;1.02;;;;;;;3.11;38.27;99823.19;6155532;23;20104;-64
2022/04/18 00:19:44;;;;;;;1.27;0.75;;;;;;;3.07;38.22;99822.06;6156217;23;20104;-64
2022/04/18 00:22:11;;;;;;;4.07;1.40;;;;;;;3.02;38.88;99819.34;6156082;23;20120;-63
2022/04/18 00:24:38;;;;;;;4.32;1.13;;;;;;;2.98;38.29;99830.06;6155905;23;20049;-63
2022/04/18 00:27:05;;;;;;;1.75;0.98;;;;;;;2.97;38.58;99828.41;6155499;23;20021;-63
2022/04/18 00:29:32;;;;;;;2.28;1.00;;;;;;;2.94;38.20;99830.88;6155247;23;20120;-63
2022/04/18 00:32:00;;;;;;;5.97;1.50;;;;;;;2.92;38.51;99822.91;6155630;23;20061;-63
2022/04/18 00:34:27;;;;;;;1.98;0.90;;;;;;;2.91;38.75;99823.19;6153820;23;20030;-63
2022/04/18 00:36:54;;;;;;;2.90;0.90;;;;;;;2.87;38.59;99824.84;6179379;23;20076;-63
2022/04/18 00:39:21;;;;;;;5.28;1.40;;;;;;;2.87;38.55;99833.09;6155608;23;20054;-63
2022/04/18 00:41:49;;;;;;;8.55;1.25;;;;;;;2.85;38.83;99816.06;6153949;23;20331;-63
2022/04/18 00:44:16;;;;;;;2.58;1.27;;;;;;;2.81;38.91;99815.78;6178682;23;20112;-64
2022/04/18 00:46:43;;;;;;;4.20;1.17;;;;;;;2.78;38.79;99808.06;6155316;23;20032;-63
2022/04/18 00:49:10;;;;;;;5.47;1.20;;;;;;;2.79;38.76;99814.41;6155854;23;20446;-63
2022/04/18 00:51:37;;;;;;;2.45;1.05;;;;;;;2.78;38.62;99821.81;6155386;23;20448;-62
2022/04/18 00:54:04;;;;;;;5.28;1.00;;;;;;;2.78;39.16;99819.06;6155495;23;20480;-62
2022/04/18 00:56:32;;;;;;;2.10;1.05;;;;;;;2.77;39.12;99819.34;6155517;23;20521;-64
2022/04/18 00:58:59;;;;;;;2.35;0.98;;;;;;;2.71;39.00;99818.53;6155172;23;20026;-62
2022/04/18 01:01:26;;;;;;;1.83;0.88;;;;;;;2.68;39.18;99818.25;6178400;23;20026;-63
2022/04/18 01:03:53;;;;;;;1.27;0.70;;;;;;;2.68;39.46;99812.75;6155460;23;20025;-63
2022/04/18 01:06:21;;;;;;;3.45;1.17;;;;;;;2.69;39.22;99811.66;6155532;23;20032;-63
2022/04/18 01:08:49;;;;;;;5.53;1.20;;;;;;;2.70;39.33;99814.16;6155495;23;20414;-71
2022/04/18 01:11:16;;;;;;;2.17;0.95;;;;;;;2.68;39.48;99818.25;6155334;23;20405;-71
2022/04/18 01:13:50;;;;;;;5.13;1.00;;;;;;;2.69;39.40;99814.41;6155206;23;20045;-71
2022/04/18 01:16:17;;;;;;;2.55;1.27;;;;;;;2.67;39.31;99805.63;6154963;23;20030;-71
2022/04/18 01:18:48;;;;;;;7.68;1.48;;;;;;;2.66;39.63;99809.47;6155113;23;20029;-71
2022/04/18 01:21:20;;;;;;;1.75;1.02;;;;;;;2.65;39.43;99807.81;6155384;23;20354;-71
2022/04/18 01:23:48;;;;;;;2.17;0.95;;;;;;;2.61;39.79;99803.97;6155576;23;20109;-72
2022/04/18 01:29:03;;;;;;;4.95;1.30;;;;;;;2.60;39.58;99794.09;6155710;23;20113;-63
2022/04/18 01:31:35;;;;;;;3.00;1.00;;;;;;;2.59;39.99;99797.91;6155167;23;20027;-62
2022/04/18 01:34:04;;;;;;;3.25;1.13;;;;;;;2.58;39.50;99791.63;6155527;23;20036;-63
2022/04/18 01:36:32;;;;;;;2.20;1.25;;;;;;;2.56;39.97;99798.47;6155358;23;20021;-64
2022/04/18 01:39:00;;;;;;;3.22;1.35;;;;;;;2.54;39.92;99796.00;6155582;23;20036;-63
2022/04/18 01:41:27;;;;;;;4.30;1.02;;;;;;;2.53;39.77;99788.03;6155893;23;20097;-63
2022/04/18 01:43:54;;;;;;;2.83;1.08;;;;;;;2.53;40.24;99799.03;6152979;23;20057;-62
2022/04/18 01:46:21;;;;;;;5.75;1.35;;;;;;;2.49;40.08;99796.00;6153199;23;20036;-63
2022/04/18 01:48:51;;;;;;;3.83;1.20;;;;;;;2.49;40.34;99786.94;6155403;23;20025;-63
2022/04/18 01:51:18;;;;;;;;;;;;;;;2.47;40.25;99802.84;6155626;23;20017;-63
2022/04/18 01:53:47;;;;;;;4.72;1.13;;;;;;;2.42;40.68;99797.34;6155064;23;19920;-63
2022/04/18 01:56:15;;;;;;;3.45;1.13;;;;;;;2.40;40.49;99799.56;6155503;23;20056;-65
2022/04/18 01:58:42;;;;;;;2.60;1.00;;;;;;;2.40;40.36;99808.59;6155263;23;20025;-63
2022/04/18 02:01:09;;;;;;;8.73;1.27;;;;;;;2.41;40.80;99815.78;6156863;23;20109;-63
2022/04/18 02:03:43;;;;;;;2.65;1.20;;;;;;;2.42;40.78;99808.34;6155391;23;20119;-63
2022/04/18 02:06:10;;;;;;;1.90;0.98;;;;;;;2.40;40.66;99805.88;6156112;23;20072;-63
2022/04/18 02:08:37;;;;;;;4.07;0.90;;;;;;;2.36;41.00;99804.78;6155325;23;20029;-62
2022/04/18 02:11:05;;;;;;;4.55;1.10;;;;;;;2.33;40.71;99813.56;6156909;23;20053;-62
2022/04/18 02:13:32;;;;;;;3.75;1.95;;;;;;;2.31;41.12;99814.94;6156915;23;20411;-63
2022/04/18 02:15:59;;;;;;;3.20;0.93;;;;;;;2.30;41.37;99805.03;6156992;23;20029;-63
2022/04/18 02:18:27;;;;;;;3.88;1.63;;;;;;;2.29;41.16;99814.38;6156672;23;20108;-63
2022/04/18 02:20:55;;;;;;;5.05;1.33;;;;;;;2.28;41.33;99812.72;6156817;23;20100;-62
2022/04/18 02:23:22;;;;;;;3.95;1.02;;;;;;;2.27;41.58;99805.56;6156526;23;20025;-62
2022/04/18 02:25:49;;;;;;;4.30;1.27;;;;;;;2.26;41.37;99809.44;6156512;23;20038;-62
2022/04/18 02:28:16;;;;;;;6.35;1.40;;;;;;;2.27;41.02;99808.31;6156463;23;20025;-63
2022/04/18 02:30:43;;;;;;;2.88;0.93;;;;;;;2.28;41.16;99810.00;6157098;23;20103;-63
2022/04/18 02:33:10;;;;;;;1.95;1.10;;;;;;;2.27;41.62;99803.66;6156770;23;20530;-71
2022/04/18 02:35:37;;;;;;;4.97;1.20;;;;;;;2.27;41.70;99806.41;6155731;23;20463;-71
2022/04/18 02:38:04;;;;;;;2.78;0.93;;;;;;;2.28;41.35;99804.50;6157034;23;20044;-71
2022/04/18 02:40:31;;;;;;;3.20;1.17;;;;;;;2.27;41.40;99802.84;6156581;23;20053;-62
2022/04/18 02:42:58;;;;;;;1.90;1.00;;;;;;;2.26;41.91;99813.00;6156268;23;20116;-62
2022/04/18 02:45:27;;;;;;;3.83;1.38;;;;;;;2.25;41.93;99803.09;6156292;23;20025;-63
2022/04/18 02:47:54;;;;;;;2.90;1.45;;;;;;;2.25;41.58;99813.28;6156448;23;20408;-62
2022/04/18 02:50:21;;;;;;;2.38;1.20;;;;;;;2.24;42.18;99811.59;6156473;23;20064;-62
2022/04/18 02:52:48;;;;;;;3.88;1.23;;;;;;;2.24;41.87;99812.44;6156161;23;20056;-62
2022/04/18 02:55:15;;;;;;;6.68;1.88;;;;;;;2.27;41.80;99805.56;6156519;23;20017;-62
2022/04/18 02:57:42;;;;;;;4.28;1.48;;;;;;;2.29;42.06;99808.88;6156700;23;20053;-62
2022/04/18 03:00:10;;;;;;;5.05;1.38;;;;;;;2.30;42.39;99805.03;6156283;23;20104;-62
2022/04/18 03:02:39;;;;;;;4.70;1.40;;;;;;;2.35;42.28;99807.78;6156494;23;20035;-63
2022/04/18 03:05:08;;;;;;;2.65;1.25;;;;;;;2.37;42.30;99805.59;6156373;23;20049;-62
2022/04/18 03:07:35;;;;;;;4.00;1.55;;;;;;;2.42;42.32;99797.34;6154855;23;20033;-62
2022/04/18 03:10:03;;;;;;;3.83;1.48;;;;;;;2.48;41.82;99796.25;6155986;23;20025;-63
2022/04/18 03:12:30;;;;;;;5.05;1.10;;;;;;;2.54;41.78;99800.66;6156013;23;20121;-62
2022/04/18 03:14:58;;;;;;;2.60;1.40;;;;;;;2.63;42.11;99802.59;6156050;23;20139;-63
2022/04/18 03:17:25;;;;;;;2.78;1.30;;;;;;;2.82;41.54;99802.88;6155812;23;20365;-64
2022/04/18 03:19:55;;;;;;;2.53;1.08;;;;;;;3.02;41.76;99797.34;6156475;23;20049;-63
2022/04/18 03:22:23;;;;;;;4.00;1.48;;;;;;;3.18;41.39;99808.03;6155932;23;20021;-62
2022/04/18 03:24:53;;;;;;;4.10;1.20;;;;;;;3.32;41.51;99803.59;6154863;23;20524;-62
2022/04/18 03:27:20;;;;;;;2.88;1.20;;;;;;;3.42;41.37;99787.09;6155788;23;20072;-63
2022/04/18 03:29:48;;;;;;;3.97;1.30;;;;;;;3.50;41.46;99791.19;6156981;23;20430;-64
2022/04/18 03:32:15;;;;;;;7.57;1.17;;;;;;;3.60;41.32;99791.97;6156425;23;20022;-63
2022/04/18 03:34:42;;;;;;;4.32;1.40;;;;;;;3.73;41.12;99804.25;6156580;23;20026;-62
2022/04/18 03:39:55;;;;;;;2.38;1.02;;;;;;;3.97;41.29;99788.75;6156192;23;20053;-63
2022/04/18 03:42:31;;;;;;;3.40;1.42;;;;;;;4.12;40.88;99799.69;6154017;23;20052;-63
2022/04/18 03:45:04;;;;;;;8.32;1.40;;;;;;;4.24;40.98;99794.66;6156790;23;20104;-62
2022/04/18 03:47:31;;;;;;;2.75;1.23;;;;;;;4.27;41.25;99799.59;6156171;23;20469;-64
2022/04/18 03:49:58;;;;;;;3.60;1.10;;;;;;;4.37;40.80;99799.50;6155680;23;20064;-63
2022/04/18 03:52:26;;;;;;;9.68;1.50;;;;;;;4.47;41.18;99804.13;6155713;23;20029;-64
2022/04/18 03:54:53;;;;;;;7.50;1.77;;;;;;;4.53;41.02;99798.28;6155704;23;20108;-62
2022/04/18 03:57:20;;;;;;;3.97;1.77;;;;;;;4.62;41.18;99795.75;6155997;23;20528;-62
2022/04/18 03:59:47;;;;;;;3.85;1.35;;;;;;;4.67;41.40;99795.69;6156114;23;20049;-63
2022/04/18 04:02:15;;;;;;;3.17;1.38;;;;;;;4.78;40.84;99795.34;6156160;23;20108;-63
2022/04/18 04:04:42;;;;;;;7.70;1.83;;;;;;;4.85;41.33;99792.22;6156093;23;20476;-63
2022/04/18 04:07:09;;;;;;;16.08;3.30;;;;;;;4.98;40.66;99788.81;6155672;23;20112;-62
2022/04/18 04:09:36;;;;;;;10.40;2.05;;;;;;;5.14;41.16;99795.81;6155958;23;20106;-63
2022/04/18 04:12:05;;;;;;;10.27;1.83;;;;;;;5.27;40.70;99795.94;6155705;23;20457;-63
2022/04/18 04:14:33;;;;;;;9.57;1.98;;;;;;;5.41;41.11;99794.16;6156354;23;20029;-64
2022/04/18 04:17:00;;;;;;;4.85;1.80;;;;;;;5.55;40.24;99794.28;6156187;23;20033;-63
2022/04/18 04:19:27;;;;;;;15.80;2.35;;;;;;;5.58;40.12;99783.47;6156284;23;20053;-62
2022/04/18 04:21:54;;;;;;;9.65;2.42;;;;;;;5.61;40.93;99782.88;6155838;23;20022;-63
2022/04/18 04:24:22;;;;;;;4.30;2.45;;;;;;;5.61;40.80;99799.44;6155869;23;20112;-63
2022/04/18 04:26:49;;;;;;;4.72;1.90;;;;;;;5.49;41.68;99787.16;6155780;23;20450;-63
2022/04/18 04:29:17;;;;;;;10.75;2.88;;;;;;;5.58;41.36;99788.16;6155701;23;20025;-64
2022/04/18 04:31:45;;;;;;;10.85;2.60;;;;;;;5.62;41.29;99784.53;6155657;23;20394;-63
2022/04/18 04:34:12;;;;;;;4.47;2.28;;;;;;;5.66;41.24;99784.75;6156153;23;20513;-63
2022/04/18 04:36:41;;;;;;;5.40;2.20;;;;;;;5.71;41.32;99781.91;6155997;23;20021;-62
2022/04/18 04:39:09;;;;;;;7.53;3.97;;;;;;;5.78;41.54;99782.41;6154423;23;20481;-64
2022/04/18 04:41:36;;;;;;;4.47;2.47;;;;;;;5.90;41.26;99779.22;6155188;23;20075;-63
2022/04/18 04:44:06;;;;;;;5.82;2.53;;;;;;;5.98;41.58;99775.81;6155246;23;20067;-62
2022/04/18 04:46:34;;;;;;;9.73;3.35;;;;;;;6.05;41.03;99768.81;6155590;23;20108;-63
2022/04/18 04:49:02;;;;;;;9.65;2.80;;;;;;;5.96;41.83;99769.75;6155691;23;20533;-63
2022/04/18 04:51:29;;;;;;;8.95;2.30;;;;;;;6.08;41.71;99770.97;6155552;23;20049;-63
2022/04/18 04:53:57;;;;;;;5.30;2.85;;;;;;;6.29;41.54;99772.31;6155478;23;20458;-63
2022/04/18 04:56:25;;;;;;;9.05;2.78;;;;;;;6.46;40.82;99766.25;6155589;23;20029;-63
2022/04/18 04:58:53;;;;;;;20.23;2.72;;;;;;;6.44;41.20;99774.03;6155427;23;20048;-63
2022/04/18 05:01:22;;;;;;;7.93;2.55;;;;;;;6.29;41.08;99771.50;6155785;23;20357;-63
2022/04/18 05:03:49;;;;;;;7.25;2.70;;;;;;;6.32;41.76;99771.72;6155203;23;20092;-64
2022/04/18 05:06:16;;;;;;;11.55;2.53;;;;;;;6.50;40.98;99772.81;6155769;23;20036;-63
2022/04/18 05:08:43;;;;;;;7.90;3.00;;;;;;;6.60;41.47;99778.22;6155175;23;20108;-63
2022/04/18 05:11:10;;;;;;;10.00;3.35;;;;;;;6.45;41.25;99775.69;6155310;23;20022;-62
2022/04/18 05:13:37;;;;;;;5.40;2.85;;;;;;;6.42;41.59;99782.63;6153427;23;20025;-63
2022/04/18 05:16:05;;;;;;;8.88;2.83;;;;;;;6.42;41.26;99771.56;6155951;23;20056;-63
2022/04/18 05:18:38;;;;;;;15.50;4.50;;;;;;;6.48;41.49;99769.56;6155169;23;20461;-63
2022/04/18 05:21:05;;;;;;;10.63;3.10;;;;;;;6.80;41.31;99775.09;6155368;23;20021;-62
2022/04/18 05:23:35;;;;;;;10.38;3.20;;;;;;;7.04;40.76;99776.59;6155151;23;20113;-63
2022/04/18 05:26:03;;;;;;;11.07;2.67;;;;;;;7.12;40.66;99772.31;6178088;23;20100;-71
2022/04/18 05:28:29;;;;;;;13.45;3.25;;;;;;;7.15;40.44;99771.69;6154875;23;20026;-73
2022/04/18 05:31:00;;;;;;;;;;;;;;;7.29;40.66;99769.78;6156166;23;20354;-73
2022/04/18 05:33:27;;;;;;;8.88;3.17;;;;;;;7.43;39.83;99779.72;6155284;23;19921;-72
2022/04/18 05:35:54;;;;;;;8.35;3.15;;;;;;;7.85;39.38;99764.78;6155448;23;20056;-71
2022/04/18 05:38:21;;;;;;;17.58;2.70;;;;;;;8.84;38.19;99759.97;6155352;23;20060;-71
2022/04/18 05:40:48;;;;;;;4.85;2.33;;;;;;;10.95;35.04;99769.25;6155552;23;20025;-72
2022/04/18 05:43:17;;;;;;;6.05;2.58;;;;;;;13.14;31.32;99765.91;6154817;23;20068;-71
2022/04/18 05:45:44;;;;;;;7.20;2.50;;;;;;;14.14;29.75;99763.34;6155216;23;20060;-71
2022/04/18 05:48:11;;;;;;;12.65;2.53;;;;;;;15.75;27.44;99765.34;6155088;23;20030;-70
2022/04/18 05:50:45;;;;;;;4.93;2.40;;;;;;;16.03;26.72;99768.91;6155607;23;20446;-71
2022/04/18 05:53:13;;;;;;;6.50;2.55;;;;;;;17.47;24.77;99765.72;6153405;23;20017;-71
2022/04/18 05:55:40;;;;;;;4.68;2.13;;;;;;;18.52;23.38;99773.16;6154901;23;20409;-71
2022/04/18 05:58:08;;;;;;;4.00;2.05;;;;;;;17.75;23.18;99772.66;6154675;23;20104;-71
2022/04/18 06:00:35;;;;;;;4.07;2.45;;;;;;;16.23;25.29;99773.38;6155342;23;20108;-70
2022/04/18 06:03:02;;;;;;;5.25;2.40;;;;;;;16.14;25.13;99786.00;6154992;23;20346;-71
2022/04/18 06:05:29;;;;;;;6.05;3.05;;;;;;;16.43;24.79;99777.06;6155323;23;20025;-70
2022/04/18 06:07:56;;;;;;;4.40;2.05;;;;;;;17.53;23.86;99790.31;6154859;23;20355;-63
2022/04/18 06:10:24;;;;;;;4.57;2.50;;;;;;;18.85;22.14;99775.22;6155210;23;20033;-63
2022/04/18 06:12:51;;;;;;;4.50;2.55;;;;;;;20.79;20.47;99759.88;6155166;23;20362;-64
2022/04/18 06:15:18;;;;;;;5.57;2.25;;;;;;;23.06;18.58;99758.56;6154771;23;20032;-64
2022/04/18 06:17:44;;;;;;;4.43;2.28;;;;;;;23.93;17.32;99753.66;6154662;23;20025;-63
2022/04/18 06:20:11;;;;;;;10.23;2.65;;;;;;;22.24;18.57;99766.78;6154951;23;20025;-63
2022/04/18 06:22:39;;;;;;;4.45;2.00;;;;;;;19.74;20.26;99753.34;6155133;23;20383;-63
2022/04/18 06:25:06;;;;;;;4.55;2.17;;;;;;;17.75;22.19;99754.97;6154957;23;20057;-63
2022/04/18 06:27:33;;;;;;;5.85;2.40;;;;;;;18.13;21.96;99757.63;6154833;23;20081;-63
2022/04/18 06:30:01;;;;;;;6.63;2.60;;;;;;;17.75;22.10;99754.97;6154934;23;20401;-63
2022/04/18 06:32:29;;;;;;;9.85;2.65;;;;;;;18.06;22.00;99752.69;6154619;23;20072;-63
2022/04/18 06:34:56;;;;;;;5.72;2.83;;;;;;;18.16;21.62;99754.06;6155111;23;20108;-63
2022/04/18 06:37:23;;;;;;;5.72;2.50;;;;;;;17.24;22.53;99753.56;6154780;23;20022;-63
2022/04/18 06:39:50;;;;;;;5.20;2.80;;;;;;;17.31;22.44;99762.13;6154518;23;20521;-64
2022/04/18 06:42:17;;;;;;;6.90;3.00;;;;;;;18.56;21.20;99761.97;6154860;23;20080;-63
2022/04/18 06:44:44;;;;;;;6.95;2.80;;;;;;;21.43;19.08;99749.63;6154855;23;20049;-63
2022/04/18 06:47:11;;;;;;;8.90;2.35;;;;;;;23.66;16.83;99760.31;6156304;23;20469;-63
2022/04/18 06:49:37;;;;;;;8.40;3.35;;;;;;;23.01;17.20;99773.16;6156600;23;20064;-64
2022/04/18 06:52:05;;;;;;;17.27;5.38;;;;;;;21.36;18.09;99758.94;6156164;23;20025;-63
2022/04/18 06:54:32;;;;;;;11.98;2.30;;;;;;;19.79;19.54;99769.94;6156876;23;20197;-64
2022/04/18 06:56:59;;;;;;;6.32;3.10;;;;;;;18.13;20.93;99772.53;6156332;23;20041;-62
2022/04/18 06:59:28;;;;;;;7.53;2.50;;;;;;;18.20;20.76;99766.19;6156380;23;20057;-63
2022/04/18 07:01:56;;;;;;;9.07;3.33;;;;;;;18.30;20.54;99771.19;6156216;23;20029;-63
2022/04/18 07:04:24;;;;;;;5.35;2.05;;;;;;;18.60;20.20;99760.81;6157043;23;20373;-63
2022/04/18 07:06:51;;;;;;;5.43;2.10;;;;;;;18.77;20.01;99757.41;6156263;23;20028;-63
2022/04/18 07:09:18;;;;;;;14.95;2.72;;;;;;;18.14;20.78;99767.69;6156308;23;20108;-64
2022/04/18 07:11:45;;;;;;;6.60;2.35;;;;;;;19.56;19.43;99755.19;6155817;23;20028;-62
2022/04/18 07:14:13;;;;;;;15.10;6.35;;;;;;;20.07;19.11;99747.59;6155997;23;20109;-63
2022/04/18 07:16:41;;;;;;;8.63;2.92;;;;;;;19.13;19.44;99759.50;6156333;23;20080;-62
2022/04/18 07:19:09;;;;;;;4.53;2.00;;;;;;;18.50;20.34;99764.28;6156355;23;20040;-62
2022/04/18 07:21:36;;;;;;;6.65;2.33;;;;;;;18.68;19.89;99748.44;6156546;23;20104;-65
2022/04/18 07:24:06;;;;;;;9.38;2.35;;;;;;;20.20;19.01;99748.16;6156172;23;20033;-62
2022/04/18 07:26:34;;;;;;;6.38;2.10;;;;;;;22.10;17.42;99747.75;6156180;23;20421;-62
2022/04/18 07:29:00;;;;;;;5.20;2.33;;;;;;;23.45;16.43;99743.41;6155822;23;20029;-62
2022/04/18 07:31:27;;;;;;;6.03;2.13;;;;;;;24.32;15.45;99744.84;6156131;23;20026;-64
2022/04/18 07:33:54;;;;;;;9.10;2.22;;;;;;;24.86;15.09;99753.25;6155988;23;20031;-64
2022/04/18 07:36:21;;;;;;;4.63;2.42;;;;;;;24.61;14.69;99744.16;6156408;23;20026;-62
2022/04/18 07:38:48;;;;;;;9.65;3.28;;;;;;;25.66;13.94;99742.06;6155736;23;20032;-64
2022/04/18 07:41:24;;;;;;;10.68;2.45;;;;;;;27.10;12.84;99744.50;6155996;23;20462;-75
2022/04/18 07:43:51;;;;;;;6.03;2.30;;;;;;;27.80;12.43;99735.22;6155893;23;20029;-74
2022/04/18 07:46:18;;;;;;;6.97;2.50;;;;;;;29.20;11.70;99739.38;6155470;23;20486;-74
2022/04/18 07:48:52;;;;;;;5.18;2.42;;;;;;;29.64;11.41;99732.75;6155270;23;20401;-72
2022/04/18 07:51:32;;;;;;;8.13;2.47;;;;;;;31.03;10.97;99733.41;6154150;23;20108;-74
2022/04/18 07:54:00;;;;;;;7.40;2.83;;;;;;;32.96;9.60;99726.34;6156200;23;20112;-75
2022/04/18 07:56:28;;;;;;;10.23;2.33;;;;;;;33.22;9.95;99727.59;6156006;23;20025;-74
2022/04/18 07:58:55;;;;;;;6.43;3.57;;;;;;;33.82;9.37;99726.88;6154064;23;20025;-74
2022/04/18 08:01:28;;;;;;;7.95;2.47;;;;;;;33.20;9.52;99724.41;6155516;23;20029;-73
2022/04/18 08:03:57;;;;;;;8.75;2.50;;;;;;;33.30;9.58;99725.19;6155762;23;20335;-73
2022/04/18 08:06:24;;;;;;;6.90;2.35;;;;;;;33.52;9.14;99717.19;6178801;23;20145;-74
2022/04/18 08:08:51;;;;;;;12.65;1.92;;;;;;;32.43;9.02;99738.56;6155345;23;20121;-74
2022/04/18 08:11:18;;;;;;;6.32;2.15;;;;;;;32.36;9.09;99728.16;6155359;23;20025;-74
2022/04/18 08:13:47;;;;;;;3.55;1.67;;;;;;;32.96;8.41;99723.47;6155822;23;20049;-77
2022/04/18 08:16:14;;;;;;;;;;;;;;;33.62;8.62;99723.75;6156451;23;20421;-74
2022/04/18 08:18:44;;;;;;;7.72;2.53;;;;;;;34.50;7.80;99718.09;6155171;23;19995;-74
2022/04/18 08:21:14;;;;;;;4.88;2.15;;;;;;;34.60;8.17;99716.75;6155497;23;20480;-74
2022/04/18 08:23:42;;;;;;;12.35;2.22;;;;;;;34.48;7.93;99716.97;6155735;23;20078;-73
2022/04/18 08:26:10;;;;;;;3.10;2.00;;;;;;;34.07;7.73;99714.94;6155697;23;20453;-75
2022/04/18 08:28:38;;;;;;;7.53;2.15;;;;;;;32.60;8.33;99696.66;6155227;23;20573;-73
2022/04/18 08:31:07;;;;;;;5.10;2.20;;;;;;;33.37;8.33;99696.88;6155666;23;20057;-73
2022/04/18 08:33:35;;;;;;;4.13;1.98;;;;;;;33.99;7.70;99705.03;6155324;23;20029;-73
2022/04/18 08:36:02;;;;;;;4.63;1.90;;;;;;;32.87;8.32;99711.94;6155598;23;20112;-73
2022/04/18 08:38:29;;;;;;;3.42;1.92;;;;;;;31.07;9.02;99734.06;6155545;23;20028;-73
2022/04/18 08:41:00;;;;;;;4.00;1.85;;;;;;;30.72;9.26;99703.69;6155533;23;20056;-73
2022/04/18 08:43:27;;;;;;;5.32;1.88;;;;;;;31.84;8.79;99713.84;6155064;23;20064;-73
2022/04/18 08:45:56;;;;;;;5.20;2.28;;;;;;;31.74;8.42;99692.03;6155702;23;20053;-73
2022/04/18 08:53:59;;;;;;;5.07;1.90;;;;;;;33.02;7.69;99692.72;6154877;23;20021;-73
2022/04/18 08:56:27;;;;;;;7.88;2.30;;;;;;;32.38;8.13;99691.03;6155419;23;20068;-73
2022/04/18 08:58:54;;;;;;;7.78;1.95;;;;;;;31.52;8.44;99706.47;6155586;23;20441;-74
2022/04/18 09:01:21;;;;;;;3.03;2.05;;;;;;;31.14;8.95;99688.59;6155475;23;20048;-73
2022/04/18 09:03:49;;;;;;;3.28;1.80;;;;;;;30.79;8.35;99686.25;6155304;23;20029;-74
2022/04/18 09:06:16;;;;;;;4.97;1.85;;;;;;;30.68;8.88;99680.06;6155170;23;20104;-73
2022/04/18 09:08:52;;;;;;;5.32;1.92;;;;;;;31.07;8.41;99673.69;6154746;23;20033;-73
2022/04/18 09:11:33;;;;;;;4.40;2.70;;;;;;;30.36;9.21;99680.38;6155227;23;20029;-73
2022/04/18 09:14:06;;;;;;;5.65;1.90;;;;;;;30.13;9.40;99682.34;6155098;23;20060;-74
2022/04/18 09:16:34;;;;;;;5.45;2.13;;;;;;;29.22;9.29;99667.28;6155652;23;20025;-75
2022/04/18 09:19:09;;;;;;;8.13;2.05;;;;;;;29.66;9.69;99675.72;6155450;23;20063;-73
2022/04/18 09:21:54;;;;;;;5.10;2.08;;;;;;;29.76;9.10;99674.59;6155226;23;20025;-72
2022/04/18 09:24:32;;;;;;;2.70;1.75;;;;;;;30.30;9.44;99665.00;6155515;23;20026;-72
2022/04/18 09:27:14;;;;;;;5.90;2.15;;;;;;;30.60;8.72;99650.78;6155732;23;20029;-74
2022/04/18 09:29:41;;;;;;;3.35;1.98;;;;;;;31.26;8.65;99649.56;6155280;23;20358;-73
2022/04/18 09:32:13;;;;;;;8.73;1.58;;;;;;;31.50;8.50;99653.56;6154688;23;20116;-73
2022/04/18 09:34:41;;;;;;;4.78;1.70;;;;;;;31.56;8.58;99645.91;6154982;23;20036;-74
2022/04/18 09:37:10;;;;;;;3.10;1.38;;;;;;;30.48;9.29;99650.81;6154958;23;20053;-73
2022/04/18 09:39:40;;;;;;;4.38;1.60;;;;;;;26.21;11.61;99665.47;6155872;23;20025;-78
2022/04/18 09:42:09;;;;;;;9.40;1.98;;;;;;;23.50;13.24;99643.59;6155006;23;20416;-74
2022/04/18 09:44:39;;;;;;;2.60;1.40;;;;;;;21.52;14.29;99642.50;6155851;23;20138;-72
2022/04/18 09:47:07;;;;;;;5.28;1.80;;;;;;;20.10;15.48;99638.69;6154910;23;20049;-71
2022/04/18 09:49:38;;;;;;;4.45;1.70;;;;;;;19.24;16.32;99647.63;6155188;23;20036;-71
2022/04/18 09:52:08;;;;;;;8.52;2.00;;;;;;;18.01;17.22;99636.78;6154915;23;20049;-71
2022/04/18 09:54:35;;;;;;;4.18;1.70;;;;;;;16.91;18.27;99649.31;6155417;23;20113;-71
2022/04/18 09:57:08;;;;;;;8.85;1.80;;;;;;;16.26;18.96;99625.88;6154999;23;20041;-70
2022/04/18 09:59:37;;;;;;;3.28;1.80;;;;;;;16.04;19.37;99629.38;6153904;23;20080;-71
2022/04/18 10:02:05;;;;;;;5.05;1.63;;;;;;;15.61;19.50;99635.19;6154945;23;20045;-72
2022/04/18 10:04:34;;;;;;;2.67;1.50;;;;;;;15.03;20.33;99644.44;6155192;23;20100;-71
2022/04/18 10:07:02;;;;;;;5.35;1.88;;;;;;;14.65;20.46;99633.81;6155082;23;20121;-71
2022/04/18 10:09:31;;;;;;;6.65;1.50;;;;;;;14.49;20.93;99641.34;6155355;23;20025;-72
2022/04/18 10:11:59;;;;;;;3.38;1.52;;;;;;;14.32;21.29;99631.28;6154857;23;20026;-72
2022/04/18 10:14:26;;;;;;;7.90;1.50;;;;;;;13.92;21.42;99633.19;6155629;23;20120;-63
2022/04/18 10:16:53;;;;;;;7.65;1.60;;;;;;;13.59;22.24;99629.75;6154545;23;20112;-64
2022/04/18 10:19:32;;;;;;;3.90;1.50;;;;;;;13.30;22.44;99631.97;6154955;23;20072;-74
2022/04/18 10:22:22;;;;;;;8.20;1.92;;;;;;;13.01;22.60;99634.94;6157076;23;20100;-72
2022/04/18 10:25:00;;;;;;;5.18;1.80;;;;;;;12.80;22.86;99630.22;6157175;23;20025;-72
2022/04/18 10:27:48;;;;;;;5.22;1.48;;;;;;;12.83;22.86;99629.56;6179749;23;20029;-73
2022/04/18 10:30:16;;;;;;;3.13;1.70;;;;;;;12.71;23.03;99637.88;6156547;23;20057;-73
2022/04/18 10:32:46;;;;;;;7.38;1.35;;;;;;;12.56;23.18;99626.56;6156670;23;20104;-73
2022/04/18 10:35:14;;;;;;;8.82;1.52;;;;;;;12.42;23.51;99626.03;6156986;23;20032;-74
2022/04/18 10:37:42;;;;;;;3.38;1.33;;;;;;;12.46;23.67;99624.19;6157101;23;20111;-72
2022/04/18 10:40:11;;;;;;;3.63;1.40;;;;;;;12.44;23.47;99624.53;6156786;23;20081;-73
2022/04/18 10:42:43;;;;;;;5.38;1.50;;;;;;;12.50;23.84;99625.94;6156443;23;20369;-74
2022/04/18 10:45:16;;;;;;;4.35;1.48;;;;;;;12.52;24.26;99634.78;6156697;23;20109;-73
2022/04/18 10:47:58;;;;;;;3.85;1.27;;;;;;;12.39;24.01;99623.94;6157131;23;20030;-73
2022/04/18 10:50:28;;;;;;;2.65;1.23;;;;;;;12.21;24.13;99625.25;6156626;23;20112;-73
2022/04/18 10:53:17;;;;;;;5.97;1.67;;;;;;;12.10;24.40;99610.06;6156746;23;20104;-73
2022/04/18 10:55:53;;;;;;;3.45;1.70;;;;;;;12.15;24.47;99610.69;6156753;23;20025;-77
2022/04/18 10:58:23;;;;;;;3.90;1.63;;;;;;;12.17;24.55;99611.16;6156575;23;20029;-75
2022/04/18 11:00:58;;;;;;;12.32;1.85;;;;;;;12.06;24.22;99615.53;6155998;23;20061;-73
2022/04/18 11:03:35;;;;;;;4.25;1.35;;;;;;;11.87;24.53;99617.97;6156548;23;20026;-73
2022/04/18 11:06:32;;;;;;;4.55;1.45;;;;;;;11.65;25.20;99604.38;6156706;23;20103;-73
2022/04/18 11:09:14;;;;;;;6.70;1.77;;;;;;;11.74;24.67;99607.91;6156813;23;20048;-72
2022/04/18 11:12:05;;;;;;;2.50;1.30;;;;;;;11.86;24.41;99605.19;6156346;23;20057;-70
2022/04/18 11:14:38;;;;;;;35.40;13.13;;;;;;;11.96;24.77;99612.34;6156389;23;20466;-70
2022/04/18 11:17:09;;;;;;;4.18;1.58;;;;;;;11.97;24.96;99611.19;6156351;23;20088;-71
2022/04/18 11:19:41;;;;;;;9.77;1.40;;;;;;;11.82;24.44;99607.03;6154501;23;20025;-72
2022/04/18 11:22:24;;;;;;;3.28;1.30;;;;;;;11.76;24.80;99608.41;6156144;23;20112;-71
2022/04/18 11:24:51;;;;;;;3.63;1.45;;;;;;;11.71;24.95;99605.78;6157263;23;20033;-71
2022/04/18 11:27:22;;;;;;;3.97;1.33;;;;;;;11.75;24.81;99592.81;6156143;23;20462;-72
2022/04/18 11:29:58;;;;;;;3.38;1.25;;;;;;;11.87;24.65;99598.44;6156147;23;20049;-72
2022/04/18 11:32:27;;;;;;;4.07;1.67;;;;;;;11.92;24.86;99598.25;6155772;23;20116;-72
2022/04/18 11:34:56;;;;;;;4.43;1.20;;;;;;;11.87;24.46;99601.25;6156371;23;20021;-71
2022/04/18 11:37:31;;;;;;;4.38;1.17;;;;;;;11.84;24.85;99596.34;6155690;23;20067;-72
2022/04/18 11:40:09;;;;;;;4.30;1.73;;;;;;;11.81;24.33;99591.44;6155781;23;20029;-73
2022/04/18 11:42:38;;;;;;;3.55;1.50;;;;;;;11.77;24.72;99601.66;6155482;23;20001;-70
2022/04/18 11:45:09;;;;;;;10.87;3.40;;;;;;;11.67;24.69;99590.09;6155049;23;20032;-64
2022/04/18 11:47:55;;;;;;;3.67;1.60;;;;;;;11.58;24.92;99584.56;6155937;23;20276;-64
2022/04/18 11:50:22;;;;;;;6.40;1.50;;;;;;;11.57;24.72;99574.56;6154253;23;20025;-65
2022/04/18 11:53:00;;;;;;;8.45;1.58;;;;;;;11.74;24.54;99582.81;6155531;23;20105;-65
2022/04/18 11:55:28;;;;;;;5.00;1.83;;;;;;;11.77;25.15;99573.78;6156066;23;20089;-75
2022/04/18 11:57:55;;;;;;;4.47;1.25;;;;;;;11.68;24.73;99575.00;6154862;23;20038;-75